Fritchton, Indiana
Current Conditions -  °F | °C
As of 3:53 AM on Tuesday 21 Oct 2014 (Local Time) from KLWV Reporting Station
Clear Clear  
Wind Chill: 43°   Ceiling: Unl
Heat Index: 46°   Visibility: 10mi
Dew Point: 44°   Wind: 6mph
Humidity: 93%   Direction: 300°WNW
Pressure: 30.02"   Gusts: NA
Location:  38.6298°N, 87.5042°W
Report Text: KLWV 210853Z AUTO 30005KT 10SM CLR 08/07 A3002 RMK AO2 SLP163 T00780067 51009
Loading
Personal Weather Stations






























Interactive Weather Map
Tropical Storm Tracking
New forecast layout! Learn more

10-Day Weather Forecast

Advertisements
Track Severe Weather on mobile